createdAt,value
2023-12-07T00:02:00.970Z,41.23
2023-12-07T00:04:27.598Z,38.30
2023-12-07T00:06:54.166Z,36.80
2023-12-07T00:09:20.779Z,41.40
2023-12-07T00:11:47.265Z,37.97
2023-12-07T00:14:13.851Z,35.80
2023-12-07T00:16:40.461Z,34.90
2023-12-07T00:19:06.969Z,35.67
2023-12-07T00:21:33.595Z,35.33
2023-12-07T00:24:00.063Z,35.40
2023-12-07T00:26:26.670Z,35.50
2023-12-07T00:28:53.148Z,36.60
2023-12-07T00:31:21.410Z,34.03
2023-12-07T00:33:47.981Z,35.33
2023-12-07T00:36:15.242Z,35.30
2023-12-07T00:38:42.192Z,32.20
2023-12-07T00:41:08.727Z,34.90
2023-12-07T00:43:35.237Z,35.43
2023-12-07T00:46:02.037Z,33.63
2023-12-07T00:48:28.565Z,32.97
2023-12-07T00:50:55.075Z,36.43
2023-12-07T00:53:21.553Z,35.30
2023-12-07T00:55:48.253Z,35.77
2023-12-07T00:58:15.071Z,34.00
2023-12-07T01:00:41.657Z,34.00
2023-12-07T01:03:08.159Z,33.10
2023-12-07T01:05:35.209Z,32.63
2023-12-07T01:08:01.892Z,31.47
2023-12-07T01:10:28.418Z,31.20
2023-12-07T01:12:55.072Z,35.20
2023-12-07T01:15:21.681Z,32.43
2023-12-07T01:17:48.329Z,34.93
2023-12-07T01:20:14.951Z,32.60
2023-12-07T01:22:46.773Z,31.43
2023-12-07T01:25:17.970Z,31.73
2023-12-07T01:27:44.714Z,33.43
2023-12-07T01:30:11.412Z,33.70
2023-12-07T01:32:38.165Z,32.93
2023-12-07T01:35:05.374Z,32.83
2023-12-07T01:37:32.201Z,32.80
2023-12-07T01:39:58.806Z,31.50
2023-12-07T01:42:25.952Z,33.23
2023-12-07T01:44:52.612Z,31.37
2023-12-07T01:47:19.338Z,31.63
2023-12-07T01:49:46.331Z,32.63
2023-12-07T01:52:13.940Z,33.10
2023-12-07T01:54:40.942Z,32.57
2023-12-07T01:57:07.582Z,31.97
2023-12-07T01:59:35.050Z,31.00
2023-12-07T02:02:01.750Z,30.43
2023-12-07T02:04:28.836Z,32.67
2023-12-07T02:06:58.955Z,33.13
2023-12-07T02:09:25.631Z,33.17
2023-12-07T02:11:52.106Z,33.40
2023-12-07T02:14:19.441Z,33.70
2023-12-07T02:17:07.489Z,30.77
2023-12-07T02:19:53.428Z,33.27
2023-12-07T02:22:28.847Z,31.40
2023-12-07T02:25:07.572Z,30.97
2023-12-07T02:27:44.221Z,34.33
2023-12-07T02:30:12.476Z,29.60
2023-12-07T02:32:44.819Z,31.77
2023-12-07T02:35:15.470Z,29.57
2023-12-07T02:37:48.974Z,29.37
2023-12-07T02:40:22.459Z,29.27
2023-12-07T02:42:49.647Z,28.17
2023-12-07T02:45:16.777Z,30.60
2023-12-07T02:47:46.503Z,32.20
2023-12-07T02:50:14.074Z,30.20
2023-12-07T02:52:41.975Z,30.33
2023-12-07T02:55:10.131Z,33.70
2023-12-07T02:57:36.900Z,28.33
2023-12-07T03:00:07.589Z,29.17
2023-12-07T03:02:41.508Z,28.30
2023-12-07T03:05:08.598Z,28.80
2023-12-07T03:07:35.697Z,30.43
2023-12-07T03:10:03.888Z,28.13
2023-12-07T03:12:30.802Z,29.80
2023-12-07T03:14:57.460Z,29.70
2023-12-07T03:17:24.082Z,28.17
2023-12-07T03:19:50.587Z,28.13
2023-12-07T03:22:17.340Z,28.80
2023-12-07T03:24:52.482Z,27.10
2023-12-07T03:27:19.975Z,28.50
2023-12-07T03:29:46.530Z,25.67
2023-12-07T03:32:13.666Z,27.80
2023-12-07T03:34:40.163Z,26.00
2023-12-07T03:37:06.923Z,26.77
2023-12-07T03:39:33.717Z,25.83
2023-12-07T03:42:00.515Z,26.27
2023-12-07T03:44:27.736Z,26.77
2023-12-07T03:46:54.505Z,28.03
2023-12-07T03:49:21.394Z,27.47
2023-12-07T03:51:48.121Z,25.93
2023-12-07T03:54:14.569Z,28.20
2023-12-07T03:56:44.037Z,25.90
2023-12-07T03:59:11.015Z,27.57
2023-12-07T04:01:37.643Z,26.60
2023-12-07T04:04:05.785Z,28.17
2023-12-07T04:06:32.238Z,26.90
2023-12-07T04:08:58.967Z,25.17
2023-12-07T04:11:25.452Z,24.27
2023-12-07T04:13:51.960Z,26.43
2023-12-07T04:16:18.635Z,25.67
2023-12-07T04:18:45.397Z,24.37
2023-12-07T04:21:11.932Z,23.93
2023-12-07T04:23:38.528Z,23.50
2023-12-07T04:26:05.491Z,25.70
2023-12-07T04:28:32.347Z,26.13
2023-12-07T04:30:58.994Z,26.20
2023-12-07T04:33:25.594Z,24.20
2023-12-07T04:35:52.126Z,24.17
2023-12-07T04:38:18.862Z,25.80
2023-12-07T04:40:45.433Z,25.17
2023-12-07T04:43:12.113Z,23.70
2023-12-07T04:45:39.462Z,22.87
2023-12-07T04:48:06.800Z,24.27
2023-12-07T04:50:33.422Z,24.83
2023-12-07T04:53:00.322Z,25.30
2023-12-07T04:55:27.490Z,24.13
2023-12-07T04:57:54.536Z,27.40
2023-12-07T05:00:21.382Z,25.97
2023-12-07T05:02:49.171Z,26.90
2023-12-07T05:05:15.840Z,26.33
2023-12-07T05:07:42.601Z,28.70
2023-12-07T05:10:10.555Z,27.07
2023-12-07T05:12:37.302Z,26.43
2023-12-07T05:15:05.553Z,28.57
2023-12-07T05:17:32.188Z,26.47
2023-12-07T05:19:58.810Z,27.57
2023-12-07T05:22:25.512Z,27.20
2023-12-07T05:24:52.290Z,29.53
2023-12-07T05:27:18.798Z,27.80
2023-12-07T05:29:45.577Z,28.27
2023-12-07T05:32:12.350Z,28.17
2023-12-07T05:34:39.140Z,27.80
2023-12-07T05:37:05.685Z,26.93
2023-12-07T05:39:32.284Z,27.27
2023-12-07T05:41:58.774Z,26.83
2023-12-07T05:44:25.505Z,28.93
2023-12-07T05:46:52.160Z,26.80
2023-12-07T05:49:18.668Z,28.33
2023-12-07T05:51:45.268Z,29.53
2023-12-07T05:54:11.905Z,26.97
2023-12-07T05:56:38.490Z,30.03
2023-12-07T05:59:05.049Z,29.17
2023-12-07T06:01:31.617Z,27.33
2023-12-07T06:03:58.773Z,27.57
2023-12-07T06:06:25.288Z,26.30
2023-12-07T06:08:52.496Z,25.50
2023-12-07T06:11:18.956Z,23.50
2023-12-07T06:13:45.893Z,24.77
2023-12-07T06:16:14.409Z,26.23
2023-12-07T06:18:41.382Z,23.77
2023-12-07T06:21:07.879Z,22.40
2023-12-07T06:23:35.108Z,25.17
2023-12-07T06:26:03.625Z,26.73
2023-12-07T06:28:30.315Z,25.07
2023-12-07T06:30:58.565Z,24.40
2023-12-07T06:33:25.324Z,26.97
2023-12-07T06:35:52.081Z,25.50
2023-12-07T06:38:20.433Z,26.57
2023-12-07T06:40:48.385Z,24.97
2023-12-07T06:43:15.359Z,26.20
2023-12-07T06:45:41.997Z,25.43
2023-12-07T06:48:08.890Z,26.50
2023-12-07T06:50:35.952Z,24.43
2023-12-07T06:53:02.566Z,24.87
2023-12-07T06:55:29.354Z,24.10
2023-12-07T06:57:55.897Z,23.20
2023-12-07T07:00:22.909Z,26.90
2023-12-07T07:02:50.550Z,25.30
2023-12-07T07:05:17.223Z,24.57
2023-12-07T07:07:43.747Z,24.90
2023-12-07T07:10:14.005Z,24.20
2023-12-07T07:12:40.815Z,26.07
2023-12-07T07:15:09.370Z,26.23
2023-12-07T07:17:36.193Z,25.33
2023-12-07T07:20:02.687Z,21.57
2023-12-07T07:22:29.190Z,23.20
2023-12-07T07:24:55.850Z,22.73
2023-12-07T07:27:22.854Z,22.37
2023-12-07T07:29:49.389Z,25.47
2023-12-07T07:32:17.081Z,23.40
2023-12-07T07:34:43.653Z,22.57
2023-12-07T07:37:10.448Z,23.00
2023-12-07T07:39:36.907Z,23.23
2023-12-07T07:42:03.536Z,24.60
2023-12-07T07:44:30.024Z,24.23
2023-12-07T07:46:56.673Z,24.90
2023-12-07T07:49:23.241Z,26.60
2023-12-07T07:51:50.036Z,24.47
2023-12-07T07:54:16.532Z,24.40
2023-12-07T07:56:44.415Z,26.53
2023-12-07T07:59:12.276Z,24.60
2023-12-07T08:01:38.852Z,26.23
2023-12-07T08:04:05.450Z,25.07
2023-12-07T08:06:35.148Z,23.93
2023-12-07T08:09:03.514Z,24.40
2023-12-07T08:11:30.319Z,25.40
2023-12-07T08:13:56.829Z,24.13
2023-12-07T08:16:23.649Z,27.10
2023-12-07T08:18:50.371Z,25.00
2023-12-07T08:21:28.426Z,25.90
2023-12-07T08:23:57.181Z,27.17
2023-12-07T08:26:23.718Z,24.47
2023-12-07T08:28:51.349Z,24.30
2023-12-07T08:31:18.601Z,27.93
2023-12-07T08:33:45.405Z,25.80
2023-12-07T08:36:12.031Z,29.33
2023-12-07T08:38:38.512Z,27.43
2023-12-07T08:41:05.284Z,26.63
2023-12-07T08:43:32.132Z,27.87
2023-12-07T08:46:01.592Z,28.77
2023-12-07T08:48:28.841Z,26.03
2023-12-07T08:50:55.846Z,27.30
2023-12-07T08:53:22.430Z,27.03
2023-12-07T08:55:49.032Z,29.33
2023-12-07T08:58:15.613Z,25.80
2023-12-07T09:00:42.088Z,27.80
2023-12-07T09:03:09.376Z,28.60
2023-12-07T09:05:36.153Z,26.43
2023-12-07T09:08:02.902Z,25.77
2023-12-07T09:10:29.549Z,26.97
2023-12-07T09:12:56.164Z,26.43
2023-12-07T09:15:22.846Z,28.50
2023-12-07T09:17:52.361Z,24.60
2023-12-07T09:20:18.952Z,22.90
2023-12-07T09:22:46.863Z,28.70
2023-12-07T09:25:14.033Z,27.27
2023-12-07T09:27:40.990Z,23.53
2023-12-07T09:30:11.692Z,26.13
2023-12-07T09:32:39.824Z,26.30
2023-12-07T09:35:16.013Z,26.37
2023-12-07T09:37:42.882Z,25.33
2023-12-07T09:40:16.377Z,27.40
2023-12-07T09:42:44.026Z,25.50
2023-12-07T09:45:10.945Z,25.60
2023-12-07T09:47:39.242Z,22.53
2023-12-07T09:50:08.093Z,23.70
2023-12-07T09:52:35.287Z,24.43
2023-12-07T09:55:05.621Z,25.17
2023-12-07T09:57:33.263Z,23.80
2023-12-07T09:59:59.918Z,24.13
2023-12-07T10:02:27.064Z,25.97
2023-12-07T10:05:20.556Z,26.53
2023-12-07T10:07:50.032Z,24.77
2023-12-07T10:10:18.576Z,22.00
2023-12-07T10:12:56.753Z,25.57
2023-12-07T10:15:24.907Z,23.90
2023-12-07T10:17:57.938Z,24.27
2023-12-07T10:20:26.609Z,23.23
2023-12-07T10:23:04.567Z,26.07
2023-12-07T10:25:38.323Z,26.70
2023-12-07T10:28:08.278Z,21.97
2023-12-07T10:30:40.690Z,24.57
2023-12-07T10:33:08.980Z,25.83
2023-12-07T10:35:45.223Z,22.43
2023-12-07T10:38:12.746Z,23.20
2023-12-07T10:40:39.435Z,27.03
2023-12-07T10:43:08.547Z,27.07
2023-12-07T10:45:38.141Z,25.43
2023-12-07T10:48:07.960Z,25.37
2023-12-07T10:50:43.627Z,25.23
2023-12-07T10:53:15.879Z,25.50
2023-12-07T10:55:49.714Z,23.63
2023-12-07T10:58:18.687Z,20.30
2023-12-07T11:00:48.086Z,22.97
2023-12-07T11:03:22.454Z,19.87
2023-12-07T11:05:50.468Z,22.10
2023-12-07T11:08:33.308Z,22.33
2023-12-07T11:11:07.215Z,21.40
2023-12-07T11:13:38.887Z,22.00
2023-12-07T11:16:05.957Z,21.67
2023-12-07T11:18:32.602Z,24.53
2023-12-07T11:20:59.973Z,23.20
2023-12-07T11:23:28.460Z,21.23
2023-12-07T11:25:56.369Z,22.67
2023-12-07T11:28:37.051Z,18.30
2023-12-07T11:31:03.837Z,22.87
2023-12-07T11:33:31.208Z,22.53
2023-12-07T11:36:03.776Z,22.43
2023-12-07T11:38:30.414Z,22.53
2023-12-07T11:40:57.759Z,21.70
2023-12-07T11:43:39.728Z,22.33
2023-12-07T11:46:08.094Z,21.23
2023-12-07T11:48:34.642Z,19.93
2023-12-07T11:51:06.101Z,22.33
2023-12-07T11:53:35.057Z,19.90
2023-12-07T11:56:03.646Z,20.10
2023-12-07T11:58:33.042Z,19.60
2023-12-07T12:01:01.881Z,19.33
2023-12-07T12:03:29.708Z,18.77
2023-12-07T12:05:57.416Z,20.40
2023-12-07T12:08:24.630Z,19.27
2023-12-07T12:10:53.956Z,20.50
2023-12-07T12:13:20.711Z,21.83
2023-12-07T12:15:47.724Z,19.80
2023-12-07T12:18:15.354Z,22.63
2023-12-07T12:20:42.083Z,20.23
2023-12-07T12:23:08.739Z,20.80
2023-12-07T12:25:35.381Z,21.07
2023-12-07T12:28:06.620Z,19.17
2023-12-07T12:30:34.505Z,19.77
2023-12-07T12:33:01.241Z,18.83
2023-12-07T12:35:28.261Z,20.57
2023-12-07T12:37:56.410Z,20.57
2023-12-07T12:40:24.496Z,20.27
2023-12-07T12:42:55.744Z,21.00
2023-12-07T12:45:23.784Z,19.27
2023-12-07T12:47:51.038Z,19.10
2023-12-07T12:50:40.573Z,20.57
2023-12-07T12:53:11.486Z,19.73
2023-12-07T12:55:39.475Z,19.10
2023-12-07T12:58:08.938Z,18.77
2023-12-07T13:00:39.363Z,20.63
2023-12-07T13:03:07.056Z,17.80
2023-12-07T13:05:35.536Z,19.90
2023-12-07T13:08:12.240Z,22.10
2023-12-07T13:10:42.298Z,18.60
2023-12-07T13:13:09.296Z,18.60
2023-12-07T13:15:35.971Z,19.23
2023-12-07T13:18:05.741Z,19.67
2023-12-07T13:20:45.922Z,19.90
2023-12-07T13:23:19.941Z,20.90
2023-12-07T13:25:46.612Z,22.53
2023-12-07T13:28:13.217Z,20.90
2023-12-07T13:30:40.162Z,21.07
2023-12-07T13:33:18.209Z,19.30
2023-12-07T13:35:53.321Z,21.03
2023-12-07T13:38:21.845Z,20.17
2023-12-07T13:40:50.150Z,20.40
2023-12-07T13:43:18.586Z,17.90
2023-12-07T13:45:45.776Z,21.30
2023-12-07T13:48:13.844Z,20.07
2023-12-07T13:50:41.164Z,19.73
2023-12-07T13:53:11.371Z,19.13
2023-12-07T13:55:38.645Z,20.37
2023-12-07T13:58:05.243Z,21.17
2023-12-07T14:00:33.035Z,19.07
2023-12-07T14:02:59.695Z,20.57
2023-12-07T14:05:26.540Z,19.53
2023-12-07T14:07:53.193Z,18.47
2023-12-07T14:10:19.819Z,21.07
2023-12-07T14:12:46.435Z,21.50
2023-12-07T14:15:13.306Z,20.40
2023-12-07T14:17:47.404Z,19.97
2023-12-07T14:20:35.376Z,21.20
2023-12-07T14:23:09.073Z,17.67
2023-12-07T14:25:35.937Z,20.70
2023-12-07T14:28:02.394Z,19.40
2023-12-07T14:30:29.025Z,22.07
2023-12-07T14:32:55.639Z,18.40
2023-12-07T14:35:23.341Z,20.60
2023-12-07T14:37:51.463Z,20.57
2023-12-07T14:40:18.876Z,18.70
2023-12-07T14:42:47.116Z,19.70
2023-12-07T14:45:16.520Z,18.83
2023-12-07T14:47:43.593Z,18.93
2023-12-07T14:50:10.524Z,17.60
2023-12-07T14:52:36.968Z,18.10
2023-12-07T14:55:05.214Z,17.60
2023-12-07T14:57:32.315Z,18.00
2023-12-07T14:59:59.570Z,21.80
2023-12-07T15:02:26.787Z,17.23
2023-12-07T15:04:53.700Z,20.30
2023-12-07T15:07:20.501Z,21.40
2023-12-07T15:09:49.878Z,18.33
2023-12-07T15:12:17.930Z,20.83
2023-12-07T15:14:46.356Z,20.97
2023-12-07T15:17:13.210Z,19.27
2023-12-07T15:19:40.910Z,18.67
2023-12-07T15:22:09.311Z,17.13
2023-12-07T15:24:37.274Z,18.20
2023-12-07T15:27:05.553Z,20.37
2023-12-07T15:29:35.882Z,19.10
2023-12-07T15:32:03.753Z,19.30
2023-12-07T15:34:37.905Z,18.87
2023-12-07T15:37:07.515Z,17.50
2023-12-07T15:39:34.333Z,16.57
2023-12-07T15:42:03.462Z,18.97
2023-12-07T15:44:31.476Z,18.97
2023-12-07T15:46:58.994Z,19.00
2023-12-07T15:49:26.561Z,20.40
2023-12-07T15:51:56.248Z,20.30
2023-12-07T15:54:31.851Z,21.40
2023-12-07T15:57:05.681Z,19.70
2023-12-07T15:59:32.392Z,18.73
2023-12-07T16:01:58.920Z,21.80
2023-12-07T16:04:32.356Z,22.80
2023-12-07T16:07:05.320Z,21.17
2023-12-07T16:09:33.142Z,20.20
2023-12-07T16:12:01.062Z,19.87
2023-12-07T16:14:30.523Z,20.23
2023-12-07T16:16:59.161Z,22.43
2023-12-07T16:19:26.353Z,19.50
2023-12-07T16:21:53.247Z,22.70
2023-12-07T16:24:19.994Z,20.10
2023-12-07T16:26:46.762Z,21.70
2023-12-07T16:29:13.646Z,21.97
2023-12-07T16:31:40.260Z,21.63
2023-12-07T16:34:06.959Z,23.07
2023-12-07T16:36:33.746Z,21.40
2023-12-07T16:39:04.198Z,22.40
2023-12-07T16:41:38.568Z,21.87
2023-12-07T16:44:11.632Z,19.33
2023-12-07T16:46:38.813Z,22.20
2023-12-07T16:49:06.741Z,18.67
2023-12-07T16:51:34.460Z,20.23
2023-12-07T16:54:02.409Z,21.17
2023-12-07T16:56:29.276Z,22.53
2023-12-07T16:58:55.872Z,22.50
2023-12-07T17:01:22.549Z,20.20
2023-12-07T17:03:50.550Z,20.10
2023-12-07T17:06:17.448Z,20.33
2023-12-07T17:08:44.284Z,19.17
2023-12-07T17:11:10.777Z,19.23
2023-12-07T17:13:38.302Z,21.57
2023-12-07T17:16:05.480Z,20.53
2023-12-07T17:18:33.566Z,20.63
2023-12-07T17:21:02.665Z,22.10
2023-12-07T17:23:29.663Z,20.90
2023-12-07T17:25:56.433Z,20.20
2023-12-07T17:28:23.179Z,20.43
2023-12-07T17:30:49.884Z,21.20
2023-12-07T17:33:16.648Z,19.27
2023-12-07T17:35:43.256Z,19.50
2023-12-07T17:38:09.908Z,18.33
2023-12-07T17:40:36.401Z,20.90
2023-12-07T17:43:03.280Z,20.83
2023-12-07T17:45:29.833Z,19.57
2023-12-07T17:47:56.479Z,20.20
2023-12-07T17:50:23.361Z,21.30
2023-12-07T17:52:49.903Z,19.50
2023-12-07T17:55:16.559Z,17.50
2023-12-07T17:57:43.112Z,18.03
2023-12-07T18:00:10.459Z,19.10
2023-12-07T18:02:36.984Z,19.90
2023-12-07T18:05:04.602Z,17.67
2023-12-07T18:07:31.185Z,19.27
2023-12-07T18:09:59.729Z,20.50
2023-12-07T18:12:26.868Z,18.43
2023-12-07T18:14:53.436Z,22.30
2023-12-07T18:17:22.019Z,18.30
2023-12-07T18:19:48.946Z,17.87
2023-12-07T18:22:15.680Z,19.90
2023-12-07T18:24:42.384Z,20.33
2023-12-07T18:27:08.962Z,19.80
2023-12-07T18:29:38.980Z,19.10
2023-12-07T18:32:06.577Z,21.07
2023-12-07T18:34:33.703Z,22.50
2023-12-07T18:37:00.513Z,22.90
2023-12-07T18:39:27.056Z,21.90
2023-12-07T18:41:53.978Z,21.17
2023-12-07T18:44:20.525Z,21.83
2023-12-07T18:46:47.094Z,22.07
2023-12-07T18:49:14.585Z,21.10
2023-12-07T18:51:41.742Z,24.30
2023-12-07T18:54:08.344Z,20.57
2023-12-07T18:56:34.974Z,23.60
2023-12-07T18:59:01.561Z,22.03
2023-12-07T19:01:32.165Z,22.17
2023-12-07T19:03:58.735Z,23.53
2023-12-07T19:06:25.623Z,24.50
2023-12-07T19:08:52.370Z,21.83
2023-12-07T19:11:19.396Z,23.73
2023-12-07T19:13:46.112Z,21.77
2023-12-07T19:16:15.875Z,21.70
2023-12-07T19:18:43.234Z,23.87
2023-12-07T19:21:09.994Z,22.83
2023-12-07T19:23:36.692Z,20.20
2023-12-07T19:26:03.405Z,23.57
2023-12-07T19:28:29.977Z,19.30
2023-12-07T19:30:56.689Z,21.93
2023-12-07T19:33:23.364Z,19.63
2023-12-07T19:35:50.164Z,21.43
2023-12-07T19:38:18.553Z,22.50
2023-12-07T19:40:45.266Z,19.23
2023-12-07T19:43:11.817Z,21.53
2023-12-07T19:45:38.861Z,21.83
2023-12-07T19:48:05.873Z,23.53
2023-12-07T19:50:32.973Z,18.27
2023-12-07T19:53:00.411Z,22.17
2023-12-07T19:55:31.532Z,23.30
2023-12-07T19:58:03.749Z,23.10
2023-12-07T20:00:30.249Z,21.90
2023-12-07T20:02:57.096Z,19.37
2023-12-07T20:05:24.325Z,20.20
2023-12-07T20:07:52.836Z,22.30
2023-12-07T20:10:20.132Z,19.30
2023-12-07T20:12:49.357Z,23.40
2023-12-07T20:15:16.980Z,19.47
2023-12-07T20:17:44.496Z,16.07
2023-12-07T20:20:11.744Z,20.80
2023-12-07T20:22:38.358Z,16.23
2023-12-07T20:25:05.334Z,13.00
2023-12-07T20:27:32.710Z,16.93
2023-12-07T20:29:59.443Z,18.80
2023-12-07T20:32:26.195Z,16.77
2023-12-07T20:34:52.729Z,20.10
2023-12-07T20:37:19.272Z,19.30
2023-12-07T20:39:46.555Z,18.60
2023-12-07T20:42:14.370Z,18.40
2023-12-07T20:44:42.089Z,18.53
2023-12-07T20:47:08.796Z,20.17
2023-12-07T20:49:37.264Z,17.10
2023-12-07T20:52:06.884Z,20.10
2023-12-07T20:54:33.347Z,20.23
2023-12-07T20:56:59.941Z,20.67
2023-12-07T20:59:26.727Z,20.03
2023-12-07T21:01:53.217Z,20.50
2023-12-07T21:04:19.906Z,19.57
2023-12-07T21:06:46.500Z,17.17
2023-12-07T21:09:13.148Z,21.00
2023-12-07T21:11:39.639Z,21.93
2023-12-07T21:14:06.215Z,20.17
2023-12-07T21:16:32.740Z,21.50
2023-12-07T21:18:59.517Z,22.93
2023-12-07T21:21:26.192Z,23.07
2023-12-07T21:23:53.029Z,19.60
2023-12-07T21:26:19.551Z,18.23
2023-12-07T21:28:46.261Z,17.60
2023-12-07T21:31:14.003Z,22.70
2023-12-07T21:33:42.913Z,19.40
2023-12-07T21:36:10.715Z,19.90
2023-12-07T21:38:37.271Z,20.23
2023-12-07T21:41:03.816Z,20.00
2023-12-07T21:43:30.605Z,19.30
2023-12-07T21:45:57.091Z,21.23
2023-12-07T21:48:23.758Z,20.83
2023-12-07T21:50:50.301Z,20.57
2023-12-07T21:53:16.878Z,19.40
2023-12-07T21:55:43.407Z,20.00
2023-12-07T21:58:09.878Z,19.30
2023-12-07T22:00:36.429Z,22.30
2023-12-07T22:03:05.081Z,20.33
2023-12-07T22:05:32.009Z,20.80
2023-12-07T22:07:59.532Z,18.97
2023-12-07T22:10:29.518Z,21.30
2023-12-07T22:12:57.856Z,20.37
2023-12-07T22:15:24.605Z,19.90
2023-12-07T22:17:51.218Z,18.27
2023-12-07T22:20:17.920Z,20.70
2023-12-07T22:22:46.241Z,23.20
2023-12-07T22:25:12.949Z,21.60
2023-12-07T22:27:39.525Z,22.50
2023-12-07T22:30:06.745Z,20.40
2023-12-07T22:32:33.393Z,21.13
2023-12-07T22:35:00.390Z,20.20
2023-12-07T22:37:27.220Z,22.20
2023-12-07T22:39:54.051Z,23.43
2023-12-07T22:42:20.836Z,20.60
2023-12-07T22:44:47.795Z,20.93
2023-12-07T22:47:15.519Z,22.70
2023-12-07T22:49:42.086Z,17.67
2023-12-07T22:52:08.614Z,18.80
2023-12-07T22:54:35.360Z,21.50
2023-12-07T22:57:04.365Z,17.07
2023-12-07T22:59:31.429Z,19.17
2023-12-07T23:01:57.917Z,19.17
2023-12-07T23:04:24.686Z,18.80
2023-12-07T23:06:51.166Z,18.30
2023-12-07T23:09:17.657Z,17.50
2023-12-07T23:11:44.320Z,18.93
2023-12-07T23:14:10.858Z,20.00
2023-12-07T23:16:37.412Z,16.73
2023-12-07T23:19:04.117Z,19.50
2023-12-07T23:21:35.672Z,18.57
2023-12-07T23:24:02.934Z,20.07
2023-12-07T23:26:29.724Z,17.20
2023-12-07T23:28:56.328Z,18.03
2023-12-07T23:31:22.892Z,18.03
2023-12-07T23:33:49.547Z,21.10
2023-12-07T23:36:16.938Z,18.60
2023-12-07T23:38:43.671Z,20.70
2023-12-07T23:41:10.208Z,18.30
2023-12-07T23:43:36.685Z,19.60
2023-12-07T23:46:03.259Z,18.50
2023-12-07T23:48:29.876Z,18.00
2023-12-07T23:50:56.672Z,17.80
2023-12-07T23:53:23.304Z,17.03
2023-12-07T23:55:50.128Z,16.63
2023-12-07T23:58:17.030Z,17.60
